createdAt,value
2022-10-12T00:02:06.060Z,56.30
2022-10-12T00:04:32.985Z,62.92
2022-10-12T00:06:59.738Z,130.30
2022-10-12T00:09:26.497Z,237.93
2022-10-12T00:11:53.235Z,110.40
2022-10-12T00:14:19.962Z,126.68
2022-10-12T00:16:46.711Z,84.70
2022-10-12T00:19:14.237Z,64.85
2022-10-12T00:21:41.115Z,90.55
2022-10-12T00:24:09.267Z,101.82
2022-10-12T00:26:36.403Z,194.98
2022-10-12T00:29:04.151Z,206.55
2022-10-12T00:31:31.888Z,177.05
2022-10-12T00:34:01.846Z,242.18
2022-10-12T00:36:32.704Z,231.95
2022-10-12T00:39:00.658Z,124.85
2022-10-12T00:41:33.842Z,123.38
2022-10-12T00:44:00.747Z,92.88
2022-10-12T00:46:38.468Z,142.02
2022-10-12T00:49:23.305Z,139.38
2022-10-12T00:51:59.130Z,114.90
2022-10-12T00:54:41.763Z,103.40
2022-10-12T00:57:11.473Z,87.18
2022-10-12T00:59:55.234Z,108.75
2022-10-12T01:02:24.663Z,106.88
2022-10-12T01:04:51.934Z,100.72
2022-10-12T01:07:18.787Z,69.72
2022-10-12T01:09:46.206Z,54.65
2022-10-12T01:12:13.284Z,65.00
2022-10-12T01:14:40.079Z,91.28
2022-10-12T01:17:43.733Z,59.35
2022-10-12T01:20:28.699Z,67.15
2022-10-12T01:23:17.713Z,105.03
2022-10-12T01:26:22.026Z,61.75
2022-10-12T01:28:54.825Z,150.77
2022-10-12T01:31:45.854Z,68.80
2022-10-12T01:34:30.869Z,55.30
2022-10-12T01:37:10.206Z,48.17
2022-10-12T01:39:52.031Z,67.78
2022-10-12T01:42:27.246Z,63.00
2022-10-12T01:45:19.217Z,65.30
2022-10-12T01:47:52.365Z,49.67
2022-10-12T01:50:22.342Z,45.65
2022-10-12T01:52:59.158Z,43.72
2022-10-12T01:55:46.786Z,30.95
2022-10-12T01:58:47.503Z,38.95
2022-10-12T02:01:47.742Z,33.30
2022-10-12T02:04:26.323Z,35.13
2022-10-12T02:07:04.656Z,40.30
2022-10-12T02:09:35.223Z,31.77
2022-10-12T02:12:28.652Z,41.38
2022-10-12T02:15:00.273Z,48.13
2022-10-12T02:17:27.131Z,75.38
2022-10-12T02:20:00.341Z,66.78
2022-10-12T02:22:34.362Z,31.70
2022-10-12T02:25:07.179Z,54.95
2022-10-12T02:27:36.282Z,110.63
2022-10-12T02:30:03.995Z,64.05
2022-10-12T02:33:00.641Z,112.57
2022-10-12T02:35:38.086Z,150.30
2022-10-12T02:38:19.711Z,381.17
2022-10-12T02:41:10.904Z,175.27
2022-10-12T02:43:50.874Z,115.28
2022-10-12T02:46:19.688Z,104.80
2022-10-12T02:48:48.066Z,62.67
2022-10-12T02:51:15.830Z,149.10
2022-10-12T02:53:45.038Z,34.50
2022-10-12T02:56:15.102Z,28.10
2022-10-12T02:58:44.568Z,26.23
2022-10-12T03:01:12.324Z,90.20
2022-10-12T03:03:39.323Z,74.28
2022-10-12T03:06:07.251Z,84.35
2022-10-12T03:08:33.994Z,78.10
2022-10-12T03:11:06.272Z,33.67
2022-10-12T03:13:33.363Z,29.83
2022-10-12T03:16:23.962Z,55.00
2022-10-12T03:19:02.995Z,67.78
2022-10-12T03:22:10.426Z,68.82
2022-10-12T03:25:02.353Z,76.32
2022-10-12T03:27:35.416Z,47.05
2022-10-12T03:30:39.964Z,32.95
2022-10-12T03:33:06.707Z,50.40
2022-10-12T03:35:33.458Z,32.35
2022-10-12T03:38:00.202Z,64.45
2022-10-12T03:40:27.011Z,118.50
2022-10-12T03:42:53.866Z,63.80
2022-10-12T03:45:20.679Z,69.30
2022-10-12T03:47:48.046Z,99.80
2022-10-12T03:50:14.808Z,135.10
2022-10-12T03:52:41.588Z,142.45
2022-10-12T03:55:08.973Z,107.43
2022-10-12T03:57:35.916Z,82.45
2022-10-12T04:00:03.054Z,38.72
2022-10-12T04:02:29.775Z,52.72
2022-10-12T04:04:56.503Z,134.38
2022-10-12T04:07:23.234Z,63.47
2022-10-12T04:09:50.596Z,44.75
2022-10-12T04:12:24.515Z,55.88
2022-10-12T04:14:58.030Z,74.38
2022-10-12T04:17:35.381Z,36.58
2022-10-12T04:20:02.832Z,32.90
2022-10-12T04:22:39.584Z,31.83
2022-10-12T04:25:15.342Z,30.67
2022-10-12T04:27:42.154Z,41.42
2022-10-12T04:30:10.120Z,38.40
2022-10-12T04:32:36.871Z,42.00
2022-10-12T04:35:46.764Z,39.20
2022-10-12T04:38:40.695Z,74.10
2022-10-12T04:41:07.439Z,58.13
2022-10-12T04:43:34.198Z,73.57
2022-10-12T04:46:00.960Z,87.60
2022-10-12T04:48:28.040Z,57.13
2022-10-12T04:50:54.884Z,57.60
2022-10-12T04:53:21.709Z,40.10
2022-10-12T04:55:48.473Z,46.70
2022-10-12T04:58:15.415Z,33.33
2022-10-12T05:00:42.157Z,35.60
2022-10-12T05:03:09.335Z,30.63
2022-10-12T05:05:36.246Z,30.98
2022-10-12T05:08:04.704Z,32.05
2022-10-12T05:10:31.624Z,25.77
2022-10-12T05:12:58.439Z,26.95
2022-10-12T05:15:25.383Z,32.92
2022-10-12T05:17:52.215Z,24.38
2022-10-12T05:20:18.974Z,29.92
2022-10-12T05:22:45.695Z,29.25
2022-10-12T05:25:12.629Z,36.95
2022-10-12T05:27:39.776Z,22.80
2022-10-12T05:30:08.037Z,27.25
2022-10-12T05:32:36.001Z,30.00
2022-10-12T05:35:03.133Z,26.85
2022-10-12T05:37:29.871Z,24.38
2022-10-12T05:39:56.656Z,28.50
2022-10-12T05:42:23.411Z,26.55
2022-10-12T05:44:50.220Z,30.20
2022-10-12T05:47:16.942Z,37.42
2022-10-12T05:49:43.679Z,24.00
2022-10-12T05:52:10.421Z,32.80
2022-10-12T05:54:37.174Z,28.17
2022-10-12T05:57:04.017Z,30.10
2022-10-12T05:59:30.836Z,26.65
2022-10-12T06:01:57.652Z,47.13
2022-10-12T06:04:24.559Z,29.90
2022-10-12T06:06:51.280Z,31.50
2022-10-12T06:09:18.157Z,28.08
2022-10-12T06:11:44.878Z,26.27
2022-10-12T06:14:11.615Z,25.80
2022-10-12T06:16:38.367Z,31.67
2022-10-12T06:19:05.126Z,26.33
2022-10-12T06:21:34.201Z,31.10
2022-10-12T06:24:01.855Z,29.70
2022-10-12T06:26:28.582Z,28.20
2022-10-12T06:28:55.487Z,27.23
2022-10-12T06:31:22.403Z,24.98
2022-10-12T06:33:50.910Z,22.85
2022-10-12T06:36:17.766Z,22.45
2022-10-12T06:38:44.502Z,24.33
2022-10-12T06:41:12.067Z,21.63
2022-10-12T06:43:38.777Z,19.80
2022-10-12T06:46:05.694Z,16.90
2022-10-12T06:48:32.533Z,21.45
2022-10-12T06:50:59.308Z,16.52
2022-10-12T06:53:28.661Z,18.17
2022-10-12T06:55:55.428Z,21.60
2022-10-12T06:58:22.155Z,21.05
2022-10-12T07:00:48.929Z,24.02
2022-10-12T07:03:17.539Z,48.42
2022-10-12T07:05:44.273Z,23.45
2022-10-12T07:08:11.004Z,70.38
2022-10-12T07:10:37.765Z,26.92
2022-10-12T07:13:05.016Z,23.08
2022-10-12T07:15:31.751Z,24.67
2022-10-12T07:17:58.476Z,24.60
2022-10-12T07:20:25.226Z,16.95
2022-10-12T07:22:53.474Z,19.30
2022-10-12T07:25:22.141Z,20.80
2022-10-12T07:27:49.496Z,20.17
2022-10-12T07:30:16.418Z,22.48
2022-10-12T07:32:44.455Z,23.02
2022-10-12T07:35:11.197Z,16.08
2022-10-12T07:37:38.252Z,21.05
2022-10-12T07:40:06.059Z,18.08
2022-10-12T07:42:33.060Z,16.50
2022-10-12T07:44:59.847Z,21.70
2022-10-12T07:47:26.586Z,17.00
2022-10-12T07:49:53.329Z,18.58
2022-10-12T07:52:20.141Z,16.83
2022-10-12T07:54:46.876Z,16.42
2022-10-12T07:57:13.620Z,15.80
2022-10-12T07:59:40.358Z,17.17
2022-10-12T08:02:07.128Z,27.75
2022-10-12T08:04:33.924Z,22.02
2022-10-12T08:07:00.653Z,17.95
2022-10-12T08:09:27.374Z,20.90
2022-10-12T08:11:56.004Z,16.63
2022-10-12T08:14:23.031Z,22.83
2022-10-12T08:16:49.755Z,19.00
2022-10-12T08:19:16.558Z,18.80
2022-10-12T08:21:43.403Z,20.15
2022-10-12T08:24:11.618Z,19.92
2022-10-12T08:26:38.893Z,19.52
2022-10-12T08:29:08.142Z,15.25
2022-10-12T08:31:35.144Z,20.38
2022-10-12T08:34:02.282Z,23.40
2022-10-12T08:36:29.013Z,17.48
2022-10-12T08:38:56.171Z,17.13
2022-10-12T08:41:46.935Z,18.15
2022-10-12T08:44:40.752Z,18.48
2022-10-12T08:47:19.224Z,18.58
2022-10-12T08:49:50.119Z,18.67
2022-10-12T08:55:19.630Z,16.77
2022-10-12T08:58:03.594Z,19.73
2022-10-12T09:00:39.428Z,16.50
2022-10-12T09:03:48.578Z,20.45
2022-10-12T09:07:58.842Z,14.93
2022-10-12T09:11:36.453Z,17.73
2022-10-12T09:18:53.815Z,13.43
2022-10-12T09:21:41.091Z,15.90
2022-10-12T09:24:25.671Z,13.38
2022-10-12T09:27:48.871Z,13.80
2022-10-12T09:34:43.819Z,13.98
2022-10-12T09:37:20.856Z,14.15
2022-10-12T09:39:48.296Z,18.75
2022-10-12T09:42:15.717Z,12.82
2022-10-12T09:44:49.658Z,15.75
2022-10-12T09:47:27.573Z,17.02
2022-10-12T09:49:58.638Z,11.10
2022-10-12T09:58:05.095Z,15.75
2022-10-12T10:01:20.073Z,10.20
2022-10-12T10:04:32.367Z,13.95
2022-10-12T10:07:14.693Z,13.63
2022-10-12T10:09:41.467Z,12.75
2022-10-12T10:12:26.389Z,11.38
2022-10-12T10:14:59.332Z,12.70
2022-10-12T10:17:29.127Z,18.80
2022-10-12T10:19:58.481Z,14.60
2022-10-12T10:22:26.273Z,17.23
2022-10-12T10:25:00.226Z,15.95
2022-10-12T10:27:39.927Z,15.30
2022-10-12T10:30:29.834Z,14.35
2022-10-12T10:33:18.233Z,18.98
2022-10-12T10:36:22.443Z,13.73
2022-10-12T10:39:05.640Z,13.32
2022-10-12T10:41:38.281Z,14.15
2022-10-12T10:44:21.783Z,19.58
2022-10-12T10:46:49.063Z,20.17
2022-10-12T10:49:47.018Z,12.40
2022-10-12T10:52:32.261Z,16.98
2022-10-12T10:59:42.683Z,16.23
2022-10-12T11:07:03.597Z,18.95
2022-10-12T11:10:29.860Z,20.57
2022-10-12T11:14:05.652Z,28.58
2022-10-12T11:20:34.886Z,25.55
2022-10-12T11:24:07.580Z,21.50
2022-10-12T11:26:44.847Z,27.58
2022-10-12T11:29:14.968Z,25.95
2022-10-12T11:32:22.950Z,23.60
2022-10-12T11:34:55.524Z,21.85
2022-10-12T11:37:36.160Z,20.42
2022-10-12T11:40:03.754Z,26.50
2022-10-12T11:42:43.383Z,19.35
2022-10-12T11:45:23.761Z,28.70
2022-10-12T11:48:00.791Z,23.77
2022-10-12T11:50:37.922Z,22.05
2022-10-12T11:53:16.399Z,24.00
2022-10-12T11:56:24.035Z,26.30
2022-10-12T11:59:01.412Z,24.70
2022-10-12T12:01:47.570Z,31.45
2022-10-12T12:04:42.291Z,21.40
2022-10-12T12:07:53.971Z,21.25
2022-10-12T12:10:26.614Z,22.63
2022-10-12T12:13:12.654Z,28.60
2022-10-12T12:15:43.973Z,22.90
2022-10-12T12:18:15.184Z,28.10
2022-10-12T12:20:44.638Z,24.85
2022-10-12T12:23:38.775Z,26.88
2022-10-12T12:26:16.254Z,22.33
2022-10-12T12:28:54.339Z,21.13
2022-10-12T12:31:24.022Z,20.45
2022-10-12T12:34:13.372Z,21.23
2022-10-12T12:36:49.881Z,19.58
2022-10-12T12:39:31.176Z,22.85
2022-10-12T12:42:07.349Z,17.27
2022-10-12T12:44:34.017Z,20.58
2022-10-12T12:47:00.652Z,18.98
2022-10-12T12:49:45.293Z,23.48
2022-10-12T12:52:24.500Z,23.85
2022-10-12T12:55:39.652Z,25.05
2022-10-12T12:58:55.561Z,18.77
2022-10-12T13:01:55.572Z,15.43
2022-10-12T13:04:22.295Z,16.17
2022-10-12T13:07:17.933Z,25.33
2022-10-12T13:10:08.851Z,19.83
2022-10-12T13:13:08.664Z,18.15
2022-10-12T13:17:23.480Z,23.85
2022-10-12T13:19:22.218Z,18.58
2022-10-12T13:21:52.743Z,17.38
2022-10-12T13:24:47.064Z,19.38
2022-10-12T13:27:43.237Z,20.00
2022-10-12T13:30:25.604Z,22.17
2022-10-12T13:33:11.104Z,15.82
2022-10-12T13:36:03.242Z,16.50
2022-10-12T13:38:31.246Z,21.75
2022-10-12T13:41:19.547Z,21.58
2022-10-12T13:44:00.276Z,20.75
2022-10-12T13:49:21.578Z,17.90
2022-10-12T13:51:55.409Z,18.30
2022-10-12T13:54:24.930Z,16.42
2022-10-12T13:57:26.111Z,18.75
2022-10-12T14:00:08.677Z,17.25
2022-10-12T14:02:35.552Z,16.65
2022-10-12T14:05:05.371Z,20.00
2022-10-12T14:07:36.143Z,17.85
2022-10-12T14:10:32.995Z,19.50
2022-10-12T14:13:02.016Z,18.42
2022-10-12T14:15:34.506Z,16.58
2022-10-12T14:18:01.455Z,19.75
2022-10-12T14:20:38.768Z,18.23
2022-10-12T14:23:20.249Z,21.67
2022-10-12T14:25:55.526Z,18.42
2022-10-12T14:28:35.464Z,15.40
2022-10-12T14:31:02.825Z,16.80
2022-10-12T14:33:30.914Z,16.38
2022-10-12T14:36:25.746Z,21.48
2022-10-12T14:38:53.530Z,16.88
2022-10-12T14:41:38.382Z,19.98
2022-10-12T14:44:10.854Z,18.95
2022-10-12T14:46:52.223Z,16.40
2022-10-12T14:49:24.328Z,15.90
2022-10-12T14:51:53.959Z,23.55
2022-10-12T14:54:21.093Z,15.73
2022-10-12T14:56:47.936Z,18.17
2022-10-12T14:59:14.725Z,16.38
2022-10-12T15:01:42.459Z,20.55
2022-10-12T15:04:14.301Z,12.82
2022-10-12T15:06:41.417Z,16.38
2022-10-12T15:09:08.170Z,22.20
2022-10-12T15:11:34.936Z,18.92
2022-10-12T15:14:01.700Z,17.83
2022-10-12T15:16:29.161Z,16.38
2022-10-12T15:18:55.922Z,16.48
2022-10-12T15:21:23.039Z,16.10
2022-10-12T15:23:49.804Z,18.15
2022-10-12T15:26:18.034Z,19.67
2022-10-12T15:28:45.150Z,16.38
2022-10-12T15:31:18.907Z,18.52
2022-10-12T15:33:46.121Z,15.98
2022-10-12T15:36:12.912Z,17.23
2022-10-12T15:38:40.069Z,21.75
2022-10-12T15:41:16.661Z,15.43
2022-10-12T15:43:43.550Z,16.85
2022-10-12T15:46:11.703Z,13.93
2022-10-12T15:48:40.050Z,17.58
2022-10-12T15:51:23.061Z,16.83
2022-10-12T15:53:54.235Z,15.85
2022-10-12T15:56:21.988Z,20.83
2022-10-12T15:58:48.904Z,17.23
2022-10-12T16:01:19.496Z,15.75
2022-10-12T16:03:47.919Z,17.13
2022-10-12T16:06:15.790Z,21.75
2022-10-12T16:08:43.254Z,21.77
2022-10-12T16:11:14.689Z,19.98
2022-10-12T16:13:48.131Z,17.30
2022-10-12T16:16:18.420Z,19.23
2022-10-12T16:18:45.357Z,23.52
2022-10-12T16:21:12.234Z,17.17
2022-10-12T16:23:40.463Z,14.95
2022-10-12T16:26:12.570Z,12.50
2022-10-12T16:28:39.775Z,16.08
2022-10-12T16:31:15.203Z,21.23
2022-10-12T16:33:42.131Z,20.15
2022-10-12T16:36:15.304Z,17.92
2022-10-12T16:38:43.748Z,16.88
2022-10-12T16:41:16.343Z,18.92
2022-10-12T16:43:44.121Z,20.80
2022-10-12T16:46:11.201Z,16.35
2022-10-12T16:48:38.407Z,19.42
2022-10-12T16:51:10.316Z,16.15
2022-10-12T16:53:37.363Z,19.75
2022-10-12T16:56:05.054Z,18.52
2022-10-12T16:58:32.099Z,16.52
2022-10-12T17:00:58.969Z,16.52
2022-10-12T17:03:25.825Z,19.52
2022-10-12T17:06:31.308Z,19.65
2022-10-12T17:08:58.660Z,22.83
2022-10-12T17:11:25.496Z,20.27
2022-10-12T17:13:55.007Z,19.73
2022-10-12T17:16:40.419Z,21.65
2022-10-12T17:19:08.171Z,19.05
2022-10-12T17:21:37.582Z,17.65
2022-10-12T17:24:04.657Z,18.95
2022-10-12T17:26:31.401Z,24.08
2022-10-12T17:28:58.197Z,23.70
2022-10-12T17:31:25.880Z,19.65
2022-10-12T17:33:52.910Z,19.60
2022-10-12T17:36:20.860Z,24.05
2022-10-12T17:38:49.301Z,23.48
2022-10-12T17:41:16.042Z,17.75
2022-10-12T17:43:42.874Z,12.77
2022-10-12T17:46:09.594Z,17.08
2022-10-12T17:48:36.346Z,14.90
2022-10-12T17:51:09.282Z,15.15
2022-10-12T17:53:36.856Z,13.80
2022-10-12T17:56:05.626Z,16.02
2022-10-12T17:58:33.195Z,15.95
2022-10-12T18:01:09.760Z,19.42
2022-10-12T18:03:38.894Z,17.02
2022-10-12T18:06:11.290Z,21.20
2022-10-12T18:08:38.151Z,19.65
2022-10-12T18:11:07.036Z,19.10
2022-10-12T18:13:35.571Z,22.70
2022-10-12T18:16:04.194Z,18.33
2022-10-12T18:18:30.935Z,18.73
2022-10-12T18:20:57.701Z,20.00
2022-10-12T18:23:24.538Z,21.98
2022-10-12T18:25:51.339Z,24.25
2022-10-12T18:28:18.181Z,18.00
2022-10-12T18:30:51.068Z,22.75
2022-10-12T18:33:17.857Z,15.93
2022-10-12T18:35:44.770Z,22.55
2022-10-12T18:38:11.683Z,20.42
2022-10-12T18:40:42.000Z,16.63
2022-10-12T18:43:09.753Z,26.88
2022-10-12T18:45:44.567Z,20.38
2022-10-12T18:48:13.410Z,23.63
2022-10-12T18:50:40.572Z,18.33
2022-10-12T18:53:07.324Z,17.48
2022-10-12T18:55:38.101Z,21.80
2022-10-12T18:58:05.339Z,17.48
2022-10-12T19:00:32.198Z,19.42
2022-10-12T19:02:59.217Z,19.95
2022-10-12T19:05:26.000Z,17.17
2022-10-12T19:07:52.771Z,17.65
2022-10-12T19:10:19.536Z,19.00
2022-10-12T19:12:46.268Z,24.00
2022-10-12T19:15:13.033Z,20.80
2022-10-12T19:17:39.776Z,20.20
2022-10-12T19:20:08.375Z,21.20
2022-10-12T19:22:35.712Z,18.92
2022-10-12T19:25:02.469Z,18.67
2022-10-12T19:27:29.183Z,17.70
2022-10-12T19:29:56.061Z,20.38
2022-10-12T19:32:22.802Z,18.85
2022-10-12T19:34:51.918Z,16.13
2022-10-12T19:37:18.700Z,18.98
2022-10-12T19:39:47.005Z,17.45
2022-10-12T19:42:13.738Z,21.42
2022-10-12T19:44:40.539Z,15.25
2022-10-12T19:47:07.301Z,20.83
2022-10-12T19:49:36.953Z,24.25
2022-10-12T19:54:35.961Z,21.33
2022-10-12T19:59:29.704Z,15.63
2022-10-12T20:01:56.424Z,14.32
2022-10-12T20:04:24.086Z,23.63
2022-10-12T20:06:50.817Z,19.00
2022-10-12T20:09:17.626Z,17.27
2022-10-12T20:11:44.389Z,18.23
2022-10-12T20:14:11.545Z,18.55
2022-10-12T20:16:38.362Z,16.92
2022-10-12T20:19:07.342Z,21.20
2022-10-12T20:21:36.348Z,16.55
2022-10-12T20:24:03.493Z,20.30
2022-10-12T20:26:30.252Z,23.67
2022-10-12T20:28:57.019Z,20.13
2022-10-12T20:31:24.597Z,21.48
2022-10-12T20:33:53.222Z,12.40
2022-10-12T20:36:28.031Z,19.25
2022-10-12T20:38:56.560Z,19.88
2022-10-12T20:41:24.915Z,16.20
2022-10-12T20:43:57.182Z,17.13
2022-10-12T20:46:24.641Z,14.75
2022-10-12T20:48:55.922Z,17.23
2022-10-12T20:51:32.024Z,19.55
2022-10-12T20:54:00.650Z,13.00
2022-10-12T20:56:32.482Z,17.33
2022-10-12T20:59:00.358Z,19.15
2022-10-12T21:01:28.171Z,15.98
2022-10-12T21:03:55.314Z,19.83
2022-10-12T21:06:23.427Z,17.33
2022-10-12T21:08:53.597Z,21.25
2022-10-12T21:11:21.556Z,22.17
2022-10-12T21:13:48.767Z,19.70
2022-10-12T21:16:15.768Z,16.23
2022-10-12T21:18:43.097Z,14.20
2022-10-12T21:21:19.082Z,18.73
2022-10-12T21:23:59.574Z,22.30
2022-10-12T21:26:29.267Z,15.38
2022-10-12T21:28:56.347Z,15.13
2022-10-12T21:31:24.458Z,18.63
2022-10-12T21:33:53.035Z,19.33
2022-10-12T21:36:26.236Z,16.95
2022-10-12T21:38:53.818Z,14.68
2022-10-12T21:41:23.893Z,17.33
2022-10-12T21:43:51.417Z,15.50
2022-10-12T21:46:25.548Z,17.05
2022-10-12T21:48:53.127Z,21.13
2022-10-12T21:51:22.424Z,19.65
2022-10-12T21:53:50.507Z,18.15
2022-10-12T21:56:27.413Z,16.27
2022-10-12T21:59:00.318Z,18.33
2022-10-12T22:01:34.446Z,18.85
2022-10-12T22:04:06.008Z,19.38
2022-10-12T22:06:33.361Z,15.27
2022-10-12T22:09:07.116Z,18.50
2022-10-12T22:11:35.802Z,18.40
2022-10-12T22:14:08.299Z,18.00
2022-10-12T22:16:36.740Z,17.55
2022-10-12T22:19:06.820Z,17.50
2022-10-12T22:21:35.071Z,22.15
2022-10-12T22:24:02.512Z,16.45
2022-10-12T22:26:30.054Z,18.58
2022-10-12T22:28:56.843Z,24.92
2022-10-12T22:31:24.826Z,18.85
2022-10-12T22:33:52.890Z,21.33
2022-10-12T22:36:19.916Z,16.33
2022-10-12T22:38:46.839Z,17.90
2022-10-12T22:41:20.411Z,16.95
2022-10-12T22:43:48.885Z,18.27
2022-10-12T22:46:16.197Z,15.23
2022-10-12T22:48:43.058Z,11.85
2022-10-12T22:51:10.848Z,19.65
2022-10-12T22:53:37.668Z,17.73
2022-10-12T22:56:12.566Z,12.50
2022-10-12T22:58:39.327Z,18.08
2022-10-12T23:01:13.100Z,21.02
2022-10-12T23:03:40.999Z,23.45
2022-10-12T23:06:10.054Z,23.40
2022-10-12T23:08:37.291Z,21.63
2022-10-12T23:11:11.681Z,22.08
2022-10-12T23:13:39.474Z,18.10
2022-10-12T23:16:14.001Z,23.20
2022-10-12T23:18:41.622Z,22.70
2022-10-12T23:21:12.286Z,17.02
2022-10-12T23:23:40.399Z,20.48
2022-10-12T23:26:16.931Z,21.48
2022-10-12T23:28:44.474Z,17.60
2022-10-12T23:31:13.496Z,18.13
2022-10-12T23:33:40.739Z,19.40
2022-10-12T23:36:13.574Z,19.67
2022-10-12T23:38:42.028Z,22.30
2022-10-12T23:41:10.449Z,20.15
2022-10-12T23:43:37.575Z,22.08
2022-10-12T23:46:05.913Z,18.80
2022-10-12T23:48:33.632Z,21.30
2022-10-12T23:51:01.178Z,20.75
2022-10-12T23:53:28.430Z,24.08
2022-10-12T23:55:55.465Z,23.90
2022-10-12T23:58:22.422Z,22.77
